Pagrindinis puslapis
METAR-TAF:

METAR-TAF

Oro uostai :

Samsunas, Turkija

platuma: 41-15-15N, ilguma: 036-34-03E, Aukštis: 5 m

Dabartinis oras

Ataskaita buvo paskelbta 58 minutes, ne 03:50 UTC
Vėjas 2 kt iš Pietų
Temperatūra 1°C
Drėgmė 93%
Slėgis 1016 hPa
Matomumas 10 km arba daugiau
nėra debesų žemiau 1500 m ir nėra kamuolinių lietaus debesų

METAR: LTFH 100350Z 17002KT CAVOK 01/00 Q1016 NOSIG

Laikas: 07:48 (04:48 UTC)

Prognozė

Ataskaita buvo paskelbta 3 valandos ir 8 minutes, ne 01:40 UTC
Prognozė galioja nuo 10 metu 03 UTC su 10 metu 12 UTC
Vėjas 2 kt nuo kintamojo kryptimis
Matomumas 10 km arba daugiau
nėra debesų žemiau 1500 m ir nėra kamuolinių lietaus debesų
Tapsmas
nuo 10 metu 05 UTC su 10 metu 07 UTC
Vėjas 12 kt iš Šiaurės/Šiaurės Vakarų

TAF: LTFH 100140Z 1003/1012 VRB02KT CAVOK BECMG 1005/1007 34012KT

Orai ataskaitas ir orų prognozės (METAR, TAF).

turimą stotys yra geltonos ir raudonos taškus žemėlapyje.

Perkelti pele per norėdami pamatyti stoties vardą.

Tada spustelėkite, norėdami matyti oro stebėjimo ir prognozės.

Norėdami pakeisti žemėlapį: spustelėkite ant žalios mygtukų su juodo kryžiaus žemyn,; žalią mygtuką su brūkšneliu, jei norite nutolinti; arba žalių rodyklių gretimoms žemėlapius.


METAR-TAF: